createdAt,value
2023-03-20T00:03:42.817Z,14.77
2023-03-20T00:08:45.893Z,14.43
2023-03-20T00:13:47.431Z,15.50
2023-03-20T00:18:48.918Z,15.65
2023-03-20T00:23:50.417Z,16.63
2023-03-20T00:28:52.244Z,15.77
2023-03-20T00:33:56.199Z,15.55
2023-03-20T00:38:57.843Z,15.65
2023-03-20T00:44:22.598Z,13.80
2023-03-20T00:49:35.700Z,14.77
2023-03-20T00:54:37.238Z,16.33
2023-03-20T00:59:54.042Z,16.50
2023-03-20T01:04:55.915Z,14.60
2023-03-20T01:09:57.450Z,15.68
2023-03-20T01:14:59.590Z,15.63
2023-03-20T01:20:01.175Z,14.93
2023-03-20T01:25:02.726Z,15.30
2023-03-20T01:30:15.672Z,15.18
2023-03-20T01:35:20.863Z,16.00
2023-03-20T01:40:37.679Z,16.55
2023-03-20T01:50:44.502Z,15.35
2023-03-20T01:55:53.529Z,14.43
2023-03-20T02:05:59.131Z,14.52
2023-03-20T02:11:19.735Z,14.55
2023-03-20T02:16:21.367Z,14.18
2023-03-20T02:22:12.925Z,14.80
2023-03-20T02:27:37.946Z,13.95
2023-03-20T02:33:13.155Z,13.05
2023-03-20T02:38:26.993Z,15.95
2023-03-20T02:43:37.683Z,14.50
2023-03-20T02:49:01.355Z,13.50
2023-03-20T02:54:33.313Z,14.05
2023-03-20T03:00:04.630Z,13.30
2023-03-20T03:05:19.005Z,15.00
2023-03-20T03:10:28.887Z,14.23
2023-03-20T03:15:39.910Z,13.02
2023-03-20T03:20:44.702Z,12.70
2023-03-20T03:25:46.706Z,12.02
2023-03-20T03:30:49.692Z,11.88
2023-03-20T03:35:57.944Z,11.80
2023-03-20T03:41:05.558Z,12.32
2023-03-20T03:46:32.484Z,11.93
2023-03-20T03:51:39.720Z,12.02
2023-03-20T03:56:47.180Z,11.43
2023-03-20T04:01:50.170Z,11.82
2023-03-20T04:06:51.981Z,10.77
2023-03-20T04:11:53.915Z,10.88
2023-03-20T04:16:55.455Z,11.25
2023-03-20T04:21:57.172Z,10.60
2023-03-20T04:26:58.799Z,11.43
2023-03-20T04:32:00.504Z,11.15
2023-03-20T04:37:19.047Z,9.57
2023-03-20T04:42:26.273Z,10.57
2023-03-20T04:47:33.255Z,9.45
2023-03-20T04:52:34.902Z,10.52
2023-03-20T04:57:36.874Z,10.25
2023-03-20T05:02:40.823Z,11.45
2023-03-20T05:07:42.447Z,12.35
2023-03-20T05:12:47.667Z,10.07
2023-03-20T05:18:07.832Z,11.65
2023-03-20T05:23:47.618Z,11.38
2023-03-20T05:29:11.464Z,11.02
2023-03-20T05:34:31.402Z,12.70
2023-03-20T05:39:42.758Z,10.48
2023-03-20T05:45:05.835Z,12.80
2023-03-20T05:50:22.251Z,12.55
2023-03-20T05:55:30.676Z,13.38
2023-03-20T06:00:52.444Z,12.38
2023-03-20T06:06:17.851Z,12.80
2023-03-20T06:16:25.338Z,10.80
2023-03-20T06:21:27.490Z,12.20
2023-03-20T06:26:30.112Z,11.38
2023-03-20T06:31:38.888Z,10.88
2023-03-20T06:36:45.365Z,12.88
2023-03-20T06:41:53.295Z,13.18
2023-03-20T06:46:58.566Z,11.65
2023-03-20T06:52:00.355Z,10.38
2023-03-20T06:57:02.431Z,12.02
2023-03-20T07:02:04.445Z,10.25
2023-03-20T07:07:06.157Z,12.07
2023-03-20T07:12:14.797Z,10.40
2023-03-20T07:17:19.202Z,10.35
2023-03-20T07:22:23.236Z,9.90
2023-03-20T07:27:26.129Z,10.30
2023-03-20T07:32:30.279Z,9.50
2023-03-20T07:37:31.994Z,9.77
2023-03-20T07:42:37.304Z,10.88
2023-03-20T07:47:47.664Z,8.88
2023-03-20T07:52:50.031Z,8.18
2023-03-20T07:57:51.573Z,8.13
2023-03-20T08:02:53.204Z,9.07
2023-03-20T08:07:54.954Z,7.75
2023-03-20T08:12:56.544Z,6.32
2023-03-20T08:17:58.054Z,5.45
2023-03-20T08:22:59.626Z,6.38
2023-03-20T08:28:01.847Z,3.67
2023-03-20T08:33:03.570Z,5.32
2023-03-20T08:38:05.179Z,3.92
2023-03-20T08:43:06.680Z,3.53
2023-03-20T08:48:09.220Z,3.17
2023-03-20T08:53:10.988Z,3.42
2023-03-20T08:58:12.511Z,4.03
2023-03-20T09:03:21.453Z,4.50
2023-03-20T09:08:23.025Z,4.07
2023-03-20T09:13:27.419Z,5.22
2023-03-20T09:18:29.650Z,4.93
2023-03-20T09:23:31.249Z,5.22
2023-03-20T09:28:33.024Z,4.20
2023-03-20T09:33:34.540Z,4.32
2023-03-20T09:38:36.082Z,4.30
2023-03-20T09:44:00.092Z,3.95
2023-03-20T09:49:13.325Z,4.30
2023-03-20T09:54:54.164Z,4.55
2023-03-20T10:00:01.475Z,4.40
2023-03-20T10:05:04.158Z,4.07
2023-03-20T10:10:06.124Z,4.03
2023-03-20T10:15:44.918Z,3.72
2023-03-20T10:21:04.738Z,3.65
2023-03-20T10:26:11.629Z,4.60
2023-03-20T10:31:34.332Z,3.70
2023-03-20T10:36:59.115Z,4.45
2023-03-20T10:42:03.601Z,4.57
2023-03-20T10:47:09.838Z,4.55
2023-03-20T10:52:22.548Z,4.65
2023-03-20T10:57:31.069Z,4.30
2023-03-20T11:02:32.565Z,4.35
2023-03-20T11:07:37.503Z,3.63
2023-03-20T11:12:47.415Z,3.30
2023-03-20T11:18:02.324Z,4.10
2023-03-20T11:23:08.020Z,2.45
2023-03-20T11:28:37.202Z,2.75
2023-03-20T11:33:41.195Z,2.17
2023-03-20T11:38:45.198Z,2.97
2023-03-20T11:43:46.708Z,2.30
2023-03-20T11:49:01.179Z,1.63
2023-03-20T11:54:07.060Z,2.05
2023-03-20T11:59:16.484Z,1.70
2023-03-20T12:04:28.109Z,1.30
2023-03-20T12:09:47.679Z,1.38
2023-03-20T12:15:15.364Z,1.52
2023-03-20T12:20:50.633Z,1.55
2023-03-20T12:25:57.754Z,1.85
2023-03-20T12:31:26.329Z,1.50
2023-03-20T12:36:39.053Z,1.58
2023-03-20T12:42:11.095Z,1.48
2023-03-20T12:47:45.926Z,1.13
2023-03-20T12:53:25.396Z,1.17
2023-03-20T12:58:36.029Z,0.90
2023-03-20T13:04:01.917Z,0.68
2023-03-20T13:09:30.490Z,1.42
2023-03-20T13:15:04.173Z,1.00
2023-03-20T13:20:24.817Z,0.98
2023-03-20T13:26:00.817Z,1.17
2023-03-20T13:31:09.007Z,1.10
2023-03-20T13:36:23.297Z,1.25
2023-03-20T13:41:27.074Z,1.08
2023-03-20T13:46:44.040Z,1.20
2023-03-20T13:52:05.388Z,1.05
2023-03-20T13:57:34.532Z,1.25
2023-03-20T14:03:00.689Z,2.08
2023-03-20T14:08:21.647Z,1.00
2023-03-20T14:13:23.535Z,1.52
2023-03-20T14:18:25.966Z,1.45
2023-03-20T14:23:38.981Z,0.95
2023-03-20T14:28:53.359Z,1.30
2023-03-20T14:34:07.101Z,1.58
2023-03-20T14:39:47.153Z,1.35
2023-03-20T14:45:10.138Z,1.95
2023-03-20T14:50:25.939Z,1.60
2023-03-20T14:55:29.506Z,1.52
2023-03-20T15:00:44.384Z,1.65
2023-03-20T15:05:47.234Z,1.40
2023-03-20T15:10:58.182Z,1.83
2023-03-20T15:16:05.917Z,1.58
2023-03-20T15:21:15.015Z,1.80
2023-03-20T15:26:19.620Z,1.70
2023-03-20T15:31:27.033Z,1.45
2023-03-20T15:36:32.460Z,2.47
2023-03-20T15:41:37.619Z,1.30
2023-03-20T15:46:39.182Z,1.88
2023-03-20T15:51:40.761Z,1.88
2023-03-20T15:56:45.424Z,2.30
2023-03-20T16:01:49.656Z,1.27
2023-03-20T16:06:58.976Z,1.88
2023-03-20T16:12:03.464Z,2.03
2023-03-20T16:17:05.497Z,2.17
2023-03-20T16:22:13.085Z,1.30
2023-03-20T16:27:22.723Z,1.42
2023-03-20T16:32:33.880Z,1.80
2023-03-20T16:37:43.511Z,1.50
2023-03-20T16:42:45.731Z,2.17
2023-03-20T16:47:48.785Z,2.40
2023-03-20T16:52:56.163Z,1.55
2023-03-20T16:58:05.804Z,2.50
2023-03-20T17:03:14.731Z,2.05
2023-03-20T17:08:25.635Z,2.08
2023-03-20T17:13:27.333Z,2.05
2023-03-20T17:18:29.631Z,1.38
2023-03-20T17:23:31.393Z,1.90
2023-03-20T17:28:35.907Z,1.42
2023-03-20T17:33:37.503Z,1.75
2023-03-20T17:38:39.033Z,2.63
2023-03-20T17:43:40.570Z,2.22
2023-03-20T17:48:42.292Z,3.35
2023-03-20T17:53:44.117Z,2.97
2023-03-20T17:58:45.769Z,2.35
2023-03-20T18:03:47.292Z,3.00
2023-03-20T18:08:48.803Z,4.85
2023-03-20T18:13:50.479Z,2.80
2023-03-20T18:18:52.992Z,3.97
2023-03-20T18:23:54.520Z,2.90
2023-03-20T18:28:56.255Z,2.55
2023-03-20T18:33:57.807Z,5.22
2023-03-20T18:38:59.972Z,3.13
2023-03-20T18:44:01.521Z,2.25
2023-03-20T18:49:03.263Z,2.13
2023-03-20T18:54:04.840Z,2.80
2023-03-20T18:59:07.714Z,2.55
2023-03-20T19:04:09.354Z,3.03
2023-03-20T19:09:12.109Z,2.53
2023-03-20T19:14:13.829Z,3.40
2023-03-20T19:19:15.720Z,2.47
2023-03-20T19:24:17.257Z,2.97
2023-03-20T19:29:18.805Z,2.50
2023-03-20T19:35:00.937Z,2.85
2023-03-20T19:39:41.827Z,2.78
2023-03-20T19:44:43.335Z,6.20
2023-03-20T19:49:44.848Z,3.85
2023-03-20T19:55:01.647Z,15.13
2023-03-20T20:05:27.857Z,3.95
2023-03-20T20:10:44.685Z,2.75
2023-03-20T20:15:46.926Z,3.85
2023-03-20T20:21:31.949Z,3.88
2023-03-20T20:26:10.612Z,2.63
2023-03-20T20:31:12.199Z,3.28
2023-03-20T20:37:08.355Z,3.28
2023-03-20T20:41:35.600Z,2.88
2023-03-20T20:46:37.147Z,3.10
2023-03-20T20:51:38.676Z,4.60
2023-03-20T20:56:40.364Z,3.53
2023-03-20T21:01:42.044Z,3.80
2023-03-20T21:07:08.250Z,6.00
2023-03-20T21:12:05.433Z,2.78
2023-03-20T21:17:08.443Z,2.35
2023-03-20T21:22:12.664Z,2.38
2023-03-20T21:27:15.522Z,3.30
2023-03-20T21:32:19.075Z,2.58
2023-03-20T21:42:42.231Z,2.55
2023-03-20T21:48:30.662Z,2.53
2023-03-20T21:53:57.107Z,2.08
2023-03-20T21:59:14.740Z,2.10
2023-03-20T22:46:46.635Z,2.22
2023-03-20T22:52:07.767Z,2.38
2023-03-20T22:57:10.205Z,2.35
2023-03-20T23:02:11.749Z,2.13
2023-03-20T23:07:13.301Z,2.55
2023-03-20T23:12:14.839Z,2.38
2023-03-20T23:17:16.499Z,2.03
2023-03-20T23:22:18.052Z,2.50
2023-03-20T23:27:19.831Z,2.03
2023-03-20T23:32:21.343Z,2.90
2023-03-20T23:37:23.377Z,2.97
2023-03-20T23:42:30.702Z,3.40
2023-03-20T23:47:43.926Z,2.67
2023-03-20T23:58:07.655Z,3.33
